Morgan, Minnesota
Current Conditions -  °F | °C
As of 1:53 AM on Friday 19 Dec 2014 (Local Time) from KRWF Reporting Station
Overcast Overcast  
Wind Chill: 16°   Ceiling: 2200
Heat Index: 25°   Visibility: 9mi
Dew Point: 21°   Wind: 9mph
Humidity: 85%   Direction: 150°SSE
Pressure: 30.22"   Gusts: NA
Location:  44.42°N, 94.93°W
Report Text: KRWF 190753Z AUTO 15008KT 9SM OVC022 M04/M06 A3022 RMK AO2 SLP250 T10391061
Loading
Personal Weather Stations






























Interactive Weather Map New forecast layout! Learn more

10-Day Weather Forecast

Advertisements
Track Severe Weather on mobile